Terminal Aerodrome Forecast
Issued by NWS Wilmington, OH

Home | Current Version | Previous Version | Text Only | Print | Product List | Glossary On
Versions: 1 2 3 4 5 6 7 8 9 10 11 12 13 14 15 16 17 18
000
FTUS41 KILN 311100
TAFILN
TAF
KILN 311136Z 3112/0112 21004KT P6SM SKC
      TEMPO 3112/3113 4SM BR
     FM311500 24008KT P6SM SCT040
     FM010000 VRB03KT P6SM SKC
     FM010800 VRB03KT 4SM BR SKC=

USA.gov is the U.S. government's official web portal to all federal, state and local government web resources and services.